x

8638863 - Chesapeake Bay Bridge Tunnel, Va (cbbv2) Weather Station

9:30am - Mon 26th Jan 2015 All times are EST. -5 hours from GMT.

  • Wind
    7mph, 9mph gusts
  • Sea Temp 41°f
  • Air Temp 42°f
  • Sea Pressure 1005.3mb
  • 8638863 - Chesapeake Bay Bridge Tunnel, Va
  • 8638863 - Chesapeake Bay Bridge Tunnel, Va

More Historic Weather Station data

Upgrade to MSW Pro to gain access to the past 30 days of data for over 8000 Wavebouys and Weather Stations around the globe.

Join Pro

Comparision Forecast

View Surf forecast
   
Mon 01/26 9:30am 7 9 mph 1005.3mb 41f 42f
9:24am 7 8 mph 1005.7mb 41f 42f
9:18am 6 9 mph 1005.9mb 41f 42f
9:12am 9 10 mph 1005.8mb 41f 43f
9:06am 8 11 mph 1005.7mb 41f 42f
9:00am 9 11 mph 1005.5mb 41f 42f
8:54am 10 13 mph 1005.5mb 41f 42f
8:48am 11 13 mph 1005.4mb 41f 42f
8:42am 11 14 mph 1005.2mb 41f 42f
8:36am 13 14 mph 1005.1mb 41f 42f
8:30am 11 13 mph 1005.3mb 41f 43f
8:24am 11 13 mph 1005.2mb 41f 42f
8:18am 10 11 mph 1005.6mb 41f 43f
8:12am 8 9 mph 1005.6mb 41f 42f
8:06am 9
mph
1005.9mb 41f 43f
8:00am 9
mph
1005.8mb 41f 43f
7:54am 7 10 mph 1006.2mb 41f 43f
7:48am 8 9 mph 1006mb 41f 43f
7:42am 7 8 mph 1006.2mb 41f 43f
7:36am 9
mph
1006mb 41f 43f
7:30am 8 9 mph 1006.2mb 41f 43f
7:24am 9 10 mph 1006.1mb 41f 43f
7:18am 10 11 mph 1006mb 41f 43f
7:12am 9 10 mph 1005.9mb 41f 43f
7:06am 9
mph
1006.1mb 41f 43f
7:00am 9 10 mph 1006.3mb 41f 43f
6:54am 8 9 mph 1006.4mb 41f 43f
6:48am 8
mph
1006.5mb 41f 43f
6:42am 7 9 mph 1006.5mb 41f 43f
6:36am 9 10 mph 1006.4mb 41f 43f
6:30am 10 11 mph 1006.2mb 41f 43f
6:24am 10 13 mph 1006.2mb 41f 43f
6:18am 11 13 mph 1006.1mb 42f 43f
6:12am 11 13 mph 1006.2mb 42f 43f
6:06am 13
mph
1006.2mb 42f 43f
6:00am 11 13 mph 1006.3mb 42f 43f
5:54am 11 13 mph 1006.3mb 42f 43f
5:48am 11 14 mph - - -
5:42am 13 14 mph 1006.2mb 42f 43f
5:36am 13 14 mph 1006.3mb 42f 43f
5:30am 13 14 mph 1006.5mb 42f 43f
5:24am 11 14 mph 1006.6mb 42f 43f
5:18am 11 14 mph 1006.6mb 42f 43f
5:12am 11 14 mph 1006.7mb 42f 43f
5:06am 13 15 mph 1006.7mb 42f 43f
5:00am 14 15 mph - - -
4:54am 11 13 mph 1006.9mb 42f 43f
4:48am 10 13 mph 1007.1mb 42f 43f
4:42am 9 11 mph 1007.2mb 42f 43f
4:36am 9 11 mph 1007.3mb 42f 42f
4:30am 9 13 mph 1007.4mb 42f 42f
4:24am 10 13 mph 1007.3mb 42f 43f
4:18am 7 10 mph 1007.6mb 42f 42f
4:12am 5 7 mph 1007.7mb 42f 42f
4:06am 3 9 mph 1007.7mb 42f 42f
4:00am 7 11 mph 1007.7mb 42f 42f
3:54am 7 11 mph 1007.9mb 42f 42f
3:48am 5 7 mph 1007.9mb 42f 42f
3:42am 6 9 mph 1008mb 42f 42f
3:36am 6 11 mph 1008.1mb 42f 42f
3:30am 6 10 mph 1008.3mb 42f 42f
3:24am 6 10 mph 1008.3mb 42f 42f
3:18am 6 10 mph 1008.4mb 42f 41f
3:12am 6 9 mph 1008.5mb 42f 42f
3:06am 5 9 mph 1008.7mb 42f 42f
3:00am 7 9 mph 1008.8mb 42f 42f
2:54am 7 9 mph 1008.9mb 42f 42f
2:48am 3 7 mph 1008.8mb 42f 42f
2:42am 3 6 mph 1009mb 42f 41f
2:36am 2 6 mph 1009mb 42f 41f
2:30am 3 7 mph 1009.1mb 42f 41f
2:24am 3 6 mph 1009.2mb 42f 41f
2:18am 5 7 mph 1009.3mb 42f 41f
2:12am 5 7 mph 1009.4mb 42f 42f
2:06am 5 8 mph 1009.5mb 42f 42f
2:00am 6 8 mph 1009.6mb 42f 42f
1:54am 7 9 mph 1009.6mb 42f 42f
1:48am 7 9 mph 1009.6mb - -
1:42am 6 8 mph 1009.8mb - 42f
1:36am 6 9 mph 1009.9mb - 42f
1:30am 7 9 mph 1009.9mb 42f 42f
1:24am 8 9 mph 1010mb 42f 42f
1:18am 8 9 mph 1010.1mb 42f 42f
1:12am 7 8 mph 1010.2mb 42f 42f
1:06am 8
mph
1010.4mb 42f 42f
1:00am 8 9 mph 1010.5mb 42f 42f
12:54am 8
mph
1010.6mb 42f 42f
12:48am 8 9 mph 1010.7mb 42f 42f
12:42am 7 8 mph 1010.8mb 42f 42f
12:36am 7 8 mph 1010.9mb 42f 42f
12:30am 7 9 mph 1010.9mb 42f 42f
12:24am 9
mph
1010.9mb 42f 42f
12:18am 8 9 mph 1011mb 42f 42f
12:12am 8 9 mph 1011.1mb 42f 42f
12:06am 8 9 mph 1011.1mb 42f 42f
12:00am 8 10 mph 1011mb 42f 42f
Sun 01/25 11:54pm 10 11 mph 1011.2mb 42f 42f
11:48pm 9 10 mph 1011.4mb 42f 42f
11:42pm 10
mph
1011.4mb 42f 42f
11:36pm 9 10 mph 1011.5mb 42f 42f
11:30pm 9 10 mph 1011.7mb 42f 42f
11:24pm 9 14 mph 1011.8mb 42f 42f
11:18pm 9 11 mph 1011.7mb 42f 42f
11:12pm 10 11 mph 1011.5mb 42f 42f
11:06pm 9 11 mph 1011.4mb 42f 42f
11:00pm 9 11 mph 1011.6mb 42f 42f
10:54pm 10 13 mph 1011.5mb 42f 42f
10:48pm 10 11 mph 1011.5mb - -
10:42pm 9 13 mph 1011.5mb 42f 42f
10:36pm 10 13 mph 1011.5mb 41f 42f
10:30pm 10 11 mph 1011.5mb 41f 42f
10:24pm 10 13 mph 1011.5mb 41f 42f
10:18pm 11 14 mph 1011.6mb 41f 42f
10:12pm 10 13 mph 1011.6mb 41f 42f
10:06pm 10 13 mph 1011.6mb 41f 42f
10:00pm 10 13 mph 1011.6mb 41f 42f
9:54pm 11 14 mph 1011.6mb 41f 42f
9:48pm 10 13 mph - - -
9:42pm 10 14 mph 1011.9mb 41f 42f
9:36pm 11 13 mph 1011.9mb 42f 42f
9:30pm 10 13 mph 1011.9mb 41f 42f
9:24pm 10 13 mph 1011.9mb 41f 43f
9:18pm 11 14 mph 1011.8mb 41f 43f
9:12pm 11 15 mph 1011.8mb 41f 43f
9:06pm 13 15 mph 1011.9mb 41f 43f
9:00pm 11 14 mph 1011.9mb 42f 43f
8:54pm 11 14 mph 1011.7mb 42f 43f
8:48pm 11 15 mph 1011.8mb 42f -
8:42pm 11 14 mph 1011.8mb 42f 43f
8:36pm 11 14 mph 1011.8mb 42f 43f
8:30pm 10 14 mph 1011.9mb 42f 43f
8:24pm 10 14 mph 1012mb 42f 43f
8:18pm 11 14 mph 1011.9mb 42f 43f
8:12pm 13 15 mph 1011.9mb 42f 43f
8:06pm 11 15 mph 1012mb 42f 43f
8:00pm 11 14 mph 1011.9mb 42f 43f
7:54pm 11 14 mph 1011.8mb 42f 43f
7:48pm 13 15 mph 1011.6mb 42f 43f
7:42pm 13 15 mph 1011.4mb 42f 44f
7:36pm 13 15 mph 1011.3mb 42f 44f
7:30pm 14 17 mph 1011.3mb 42f 44f
7:24pm 13 16 mph 1011.3mb 42f 44f
7:18pm 13 14 mph 1011.2mb 42f 44f
7:12pm 8 9 mph 1011.2mb 42f 43f
7:06pm 7 13 mph 1011.3mb 42f 43f
7:00pm 10 13 mph 1011.2mb 42f 45f
6:54pm 10
mph
1011.2mb 42f 45f
6:48pm 9 10 mph 1011.3mb 42f 45f
6:42pm 9 10 mph 1011.4mb 42f 45f
6:36pm 8 9 mph 1011.5mb 42f 45f
6:30pm 8 10 mph 1011.5mb 42f 45f
6:24pm 9 10 mph 1011.3mb 42f 45f
6:18pm 9 10 mph 1011mb 42f 46f
6:12pm 9 10 mph 1011mb 42f 46f
6:06pm 9 10 mph 1010.9mb 42f 46f
6:00pm 10
mph
1010.9mb 42f 46f
5:54pm 9 10 mph 1010.9mb 42f 46f
5:48pm 10 11 mph 1010.8mb 42f 46f
5:42pm 9 11 mph 1010.9mb 42f 46f
5:36pm 8 9 mph 1010.8mb 42f 46f
5:30pm 8 9 mph 1010.8mb 42f 46f
5:24pm 7 8 mph 1010.8mb 42f 48f
5:18pm 3 5 mph 1010.8mb 42f 46f
5:12pm 5 8 mph 1010.6mb 42f 46f
5:06pm 7 9 mph 1010.7mb 42f 46f
5:00pm 7 8 mph 1010.7mb 42f 46f
4:54pm 5 7 mph 1010.7mb 42f 46f
4:48pm 5 7 mph 1010.8mb 42f 46f
4:42pm 5 8 mph 1010.8mb 42f 47f
4:36pm 6 9 mph 1010.6mb 42f 46f
4:30pm 5 7 mph 1010.6mb 42f 47f
4:24pm 6 7 mph 1010.8mb 42f 47f
4:18pm 6
mph
1010.9mb 42f 47f
4:12pm 3 6 mph 1010.9mb 42f 48f
4:06pm 5 7 mph 1011mb 42f 47f
4:00pm 7
mph
1011.1mb 41f 46f
3:54pm 7 8 mph 1011.1mb 42f 46f
3:48pm 8 9 mph 1011.2mb 41f 46f
3:42pm 8 10 mph 1011.1mb 42f 44f
3:36pm 9 10 mph 1011.1mb 41f 44f
3:30pm 7 8 mph 1011.2mb 41f 44f
3:24pm 6 7 mph 1011.1mb 41f 44f
3:18pm 6 7 mph 1011.1mb 41f 44f
3:12pm 7 8 mph 1011.2mb 41f 44f
3:06pm 8
mph
1010.9mb 41f 44f
3:00pm 7 8 mph 1011mb 41f 44f
2:54pm 8
mph
1011.1mb 41f 44f
2:48pm 8 9 mph 1011mb 41f 44f
2:42pm 8 9 mph 1011mb 41f 44f
2:36pm 7 8 mph 1011.1mb 41f 44f
2:30pm 7
mph
1011.3mb 42f 44f
2:24pm 6 9 mph 1011.2mb 42f 45f
2:18pm 5
mph
1011.3mb 42f 45f
2:12pm 3
mph
1011.5mb 42f 45f
2:06pm 3 5 mph 1011.6mb 42f 44f
2:00pm 5
mph
1011.4mb 42f 44f
1:54pm 5 6 mph 1011.4mb 42f 43f
1:48pm 2 5 mph 1011.5mb 42f 44f
1:42pm 5
mph
1011.6mb 42f 43f
1:36pm 3
mph
1011.5mb 42f 44f
1:30pm 2
mph
1011.5mb 42f 44f
1:24pm 2
mph
1011.6mb 42f 43f
1:18pm 1 3 mph 1011.7mb 42f 44f
1:12pm 3
mph
1011.7mb 42f 46f
1:06pm 2
mph
1011.6mb 42f 44f
1:00pm 2
mph
1011.7mb 42f 44f
12:54pm 2
mph
1011.8mb 42f 45f
12:48pm  -  mph 1011.9mb 42f 45f
12:42pm  -  1 mph 1012.2mb 42f 46f
12:36pm 1 2 mph 1012.3mb 42f 45f
12:30pm 2 3 mph 1012.2mb 42f 45f
12:24pm 3
mph
1012.4mb 42f 45f
12:18pm 2
mph
1012.5mb 42f 46f
12:12pm 2
mph
1012.4mb 42f 46f
12:06pm 1 2 mph 1012.5mb 42f 44f
12:00pm  -  1 mph 1012.6mb 42f 45f
11:54am 1
mph
1012.7mb 41f 44f
11:48am  -  3 mph 1012.8mb 42f 43f
11:42am 3 5 mph 1013.2mb 42f 42f
11:36am 5 6 mph 1013.2mb 42f 42f
11:30am 5 6 mph 1013.1mb 41f 42f
11:24am 6 8 mph 1013.3mb 41f 42f
11:18am 8 9 mph 1013.4mb 41f 42f
11:12am 9
mph
1013.5mb 41f 42f
11:06am 9 10 mph 1013.5mb 41f 42f
11:00am 8 9 mph 1013.5mb 41f 41f
10:54am 9 10 mph 1013.6mb 41f 41f
10:48am 9 11 mph 1013.8mb 41f 41f
10:42am 10 11 mph 1013.6mb 41f 41f
10:36am 11 13 mph 1013.7mb 41f 41f
10:30am 9 10 mph 1013.6mb 41f 41f
10:24am 8 9 mph 1013.5mb 41f 41f
10:18am 8 10 mph 1013.5mb 41f 41f
10:12am 9 11 mph 1013.5mb 41f 41f
10:06am 10 13 mph 1013.5mb 41f 41f
10:00am 10 13 mph 1013.5mb 41f 41f
9:54am 10 11 mph 1013.2mb 41f 40f
9:48am 10 11 mph 1012.8mb 41f 40f
9:42am 9 10 mph 1012.8mb 41f 40f
9:36am 10
mph
1012.8mb 41f 40f
9:30am 10 11 mph 1012.8mb 41f 40f
9:24am 10 11 mph 1012.8mb 41f 39f
9:18am 9 10 mph 1012.7mb 41f 39f
9:12am 10
mph
1012.5mb 41f 39f
9:06am 9 10 mph 1012.5mb 41f 39f
9:00am 9 10 mph 1012.5mb 41f 39f
8:54am 9 10 mph 1012.5mb 41f 39f
8:48am 10
mph
1012.4mb 41f 39f
8:42am 8 9 mph 1012.2mb 41f 39f
8:36am 7 9 mph 1012mb 41f 38f
8:30am 8 9 mph 1012.1mb 41f 39f
8:24am 7 8 mph 1011.9mb 41f 39f
8:18am 7 9 mph 1011.9mb 41f 39f
8:12am 9 10 mph 1012mb 41f 39f
8:06am 9 10 mph 1012.1mb 41f 39f
8:00am 10 13 mph 1012.1mb 41f 39f
7:54am 11 14 mph 1011.9mb 41f 39f
7:48am 13 15 mph 1012mb 41f 40f
7:42am 13 14 mph 1012mb 41f 39f
7:36am 13 14 mph 1012mb 41f 39f
7:30am 13 15 mph 1012mb 41f 39f
7:24am 13 16 mph 1012mb 41f 39f
7:18am 14 15 mph 1012mb 41f 39f
7:12am 14 17 mph 1011.9mb 41f 39f
7:06am 15 17 mph 1011.8mb 41f 39f
7:00am 15 17 mph 1011.6mb 41f 39f
6:54am 15 17 mph 1011.4mb 41f 39f
6:48am 16 18 mph 1011.2mb 41f 39f
6:42am 16 20 mph 1011.2mb 41f 38f
6:36am 15 20 mph 1011.1mb 41f 39f
6:30am 17 18 mph 1010.7mb 41f 38f
6:24am 17 21 mph 1010.5mb 41f 38f
6:18am 18 20 mph 1010.5mb 41f 38f
6:12am 17 20 mph 1010.5mb 41f 39f
6:06am 17 20 mph 1010.3mb 41f 39f
6:00am 16 20 mph 1010mb 41f 39f
5:54am 18 20 mph 1009.9mb 41f -
5:48am 17 20 mph 1009.7mb 41f 38f
5:42am 17 21 mph 1009.6mb 41f 38f
5:36am 17 20 mph 1009.7mb 41f 38f
5:30am 18 22 mph 1009.7mb 41f 39f
5:24am 17 23 mph 1009.6mb 41f 39f
5:18am 20 23 mph 1009.5mb 41f 39f
5:12am 22 24 mph 1009.4mb 41f 39f
5:06am 21 25 mph 1009.3mb 41f 39f
5:00am 18 21 mph 1009.3mb 41f 38f
4:54am 20 22 mph 1009.2mb 41f 38f
4:48am 20 22 mph 1009.2mb 41f 39f
4:42am 18 21 mph 1009mb 41f 39f
4:36am 18 23 mph 1009.1mb 41f 38f
4:30am 20 22 mph 1009.1mb 41f 38f
4:24am 20 22 mph 1009mb 41f 38f
4:18am 18 21 mph 1008.8mb 41f 39f
4:12am 18 23 mph 1008.7mb 41f 39f
4:06am 20 23 mph 1008.7mb 41f 39f
4:00am 18 22 mph 1008.5mb 41f 39f
3:54am 20 23 mph 1008.3mb 41f 39f
3:48am 20 23 mph 1008.2mb 42f 39f
3:42am 22 24 mph 1008.1mb 42f 39f
3:36am 22 24 mph 1008mb 42f 39f
3:30am 20 24 mph 1008mb 42f 39f
3:24am 18 22 mph 1008mb 42f 39f
3:18am 18 22 mph 1008mb 42f 39f
3:12am 16 20 mph 1008mb 42f 39f
3:06am 18 23 mph 1007.9mb 42f 39f
3:00am 18 22 mph 1007.8mb 42f 38f
2:54am 18 22 mph 1007.8mb 42f 39f
2:48am 20 22 mph 1007.8mb 42f 39f
2:42am 17 22 mph 1007.8mb 42f 39f
2:36am 17 21 mph 1008mb 42f 39f
2:30am 18 22 mph 1007.9mb 42f 39f
2:24am 18 22 mph 1007.9mb 42f 39f
2:18am 18 22 mph 1007.7mb 42f 39f
2:12am 18 23 mph 1007.6mb 42f 39f
2:06am 18 23 mph 1007.5mb 41f 39f
2:00am 21 24 mph 1007.4mb 41f 39f
1:54am 20 23 mph 1007.2mb 41f 39f
1:48am 20 24 mph 1007.3mb 41f -
1:42am 22 26 mph 1007.3mb 41f -
1:36am 23 25 mph 1007.1mb 41f -
1:30am 21 24 mph 1007mb 41f 40f
1:24am 23 29 mph 1006.9mb 41f 40f
1:18am 23 28 mph - - -
1:12am 22 25 mph 1006.8mb 41f 40f
1:06am 22 26 mph 1006.7mb 41f 40f
1:00am 23 26 mph 1006.6mb 41f 40f
12:54am 20 23 mph 1006.5mb 41f 40f
12:48am 18 23 mph 1006.5mb 41f 40f
12:42am 21 25 mph 1006.4mb 41f 40f
12:36am 21 23 mph 1006.3mb 41f 40f
12:30am 20 25 mph 1006.3mb 41f 40f
12:24am 20 24 mph 1006.3mb 41f 40f
12:18am 18 24 mph 1006.3mb 41f 40f
12:12am 21 24 mph 1006.3mb 41f 40f
12:06am 22 23 mph 1006.2mb 41f 40f
12:00am 21 25 mph 1006.2mb 41f 40f
Sat 01/24 11:54pm 22 24 mph 1006.1mb 41f 40f
11:48pm 22 25 mph 1006.1mb 41f 40f
11:42pm 21 23 mph 1005.9mb 41f 40f
11:36pm 21 24 mph 1005.9mb 41f 40f
11:30pm 23 25 mph 1005.7mb 41f 41f
11:24pm 21 24 mph 1005.6mb 41f 41f
11:18pm 22 26 mph 1005.5mb 41f 41f
11:12pm 24 26 mph 1005.4mb 41f 41f
11:06pm 21 23 mph 1005.4mb 41f 41f
11:00pm 22 23 mph 1005.4mb 41f 41f
10:54pm 20 24 mph 1005.3mb 41f 41f
10:48pm 17 22 mph 1005.2mb 41f 41f
10:42pm 20 22 mph 1005mb 41f 41f
10:36pm 20 23 mph 1004.8mb 41f 41f
10:30pm 20 22 mph 1004.8mb 41f 41f
10:24pm 21 22 mph 1004.7mb 41f 42f
10:18pm 20 24 mph 1004.6mb 41f 42f
10:12pm 21 24 mph 1004.4mb 41f 42f
10:06pm 22 26 mph 1004.3mb 41f 42f
10:00pm 22 28 mph 1004.4mb 41f 42f
9:54pm 22 26 mph 1004.2mb 41f 42f
9:48pm 23 26 mph 1004.1mb 41f 42f
9:42pm 23 25 mph 1004.1mb 41f 42f
9:36pm 22 26 mph 1004.1mb 41f 42f
9:30pm 23 26 mph 1004.2mb 41f 42f
9:24pm 21 24 mph 1003.9mb 41f 42f
9:18pm 20 22 mph - - -
9:12pm 18 22 mph 1003.5mb 41f 42f
9:06pm 20 23 mph 1003.5mb 41f 42f
9:00pm 20 23 mph 1003.3mb 41f 42f
8:54pm 18 22 mph 1003.2mb 41f 42f
8:48pm 21 24 mph 1003.2mb 41f 42f
8:42pm 20 23 mph 1003.2mb 41f 42f
8:36pm 20 25 mph 1003.2mb 41f 42f
8:30pm 20 22 mph 1003.2mb 41f 42f
8:24pm 18 21 mph 1003.2mb 41f 42f
8:18pm 16 18 mph 1003.2mb 41f 41f
8:12pm 15 17 mph 1003.1mb 41f 41f
8:06pm 16 20 mph 1003.2mb 41f 41f
8:00pm 17 20 mph 1003.1mb 41f 41f
7:54pm 18 21 mph 1003mb 41f 41f
7:48pm 17 21 mph 1003mb 41f 41f
7:42pm 18 21 mph 1002.9mb 41f 41f
7:36pm 17 20 mph 1002.9mb 41f 41f
7:30pm 18 21 mph 1002.8mb 41f 41f
7:24pm 17 20 mph 1002.7mb 41f 41f
7:18pm 16 20 mph 1002.6mb 41f 41f
7:12pm 17 21 mph 1002.4mb 41f 41f
7:06pm 18 21 mph 1002.4mb 41f 41f
7:00pm 17 20 mph 1002.4mb 41f 41f
6:54pm 18 21 mph 1002.2mb 41f 41f
6:48pm 17 20 mph 1002.1mb 41f 41f
6:42pm 16 20 mph 1002.1mb 41f 41f
6:36pm 18 21 mph 1002.1mb 41f 41f
6:30pm 17 22 mph 1001.9mb 41f 41f
6:24pm 20 23 mph 1001.8mb 41f 41f
6:18pm 20 23 mph 1001.7mb 41f 41f
6:12pm 20 23 mph 1001.6mb 41f 41f
6:06pm 20 22 mph 1001.4mb 41f 41f
6:00pm 20 23 mph 1001.3mb 41f 41f
5:54pm 18 22 mph 1001.1mb 41f 41f
5:48pm 21 23 mph 1001mb 41f 41f
5:42pm 21 23 mph 1000.8mb 41f 41f
5:36pm 21 24 mph 1000.7mb 41f 41f
5:30pm 21 23 mph 1000.5mb 41f 41f
5:24pm 18 21 mph 1000.3mb 41f 41f
5:18pm 18 21 mph 1000.2mb 41f 41f
5:12pm 18 21 mph 1000.1mb 41f 41f
5:06pm 20 22 mph 1000.1mb 41f 41f
5:00pm 17 22 mph 999.9mb 41f 41f
4:54pm 20 24 mph 1000.2mb 41f 41f
4:48pm 20 24 mph 1000.2mb 41f 41f
4:42pm 21 24 mph 1000.2mb 41f 41f
4:36pm 22 25 mph 1000.1mb 42f 41f
4:30pm 22 26 mph 1000mb 42f 41f
4:24pm 22 24 mph 999.8mb 42f 40f
4:18pm 20 25 mph 999.7mb 42f 40f
4:12pm 24 28 mph 999.6mb 42f 40f
4:06pm 22 23 mph 999.5mb 42f 40f
4:00pm 20 22 mph 999.4mb 42f 40f
3:54pm 21 25 mph 999.3mb 42f 40f
3:48pm 21 25 mph 999.2mb 42f 40f
3:42pm 24 28 mph 999.4mb 42f 40f
3:36pm 23 28 mph 999.4mb 42f 40f
3:30pm 24 28 mph 999.3mb 42f 40f
3:24pm 22 29 mph 999.1mb 42f 40f
3:18pm 25 29 mph 998.9mb 42f 40f
3:12pm 24 28 mph 998.8mb 42f 40f
3:06pm 23 28 mph 998.7mb 42f 40f
3:00pm 23 26 mph 998.5mb 42f 39f
2:54pm 23 26 mph 998.4mb 42f 39f
2:48pm 22 26 mph 998.1mb 42f 39f
2:42pm 23 26 mph 998.1mb 42f 38f
2:36pm 24 26 mph 997.9mb 42f 38f
2:30pm 22 25 mph 997.7mb 42f 38f
2:24pm 23 26 mph 997.7mb 42f 38f
2:18pm 24 28 mph 997.8mb 42f 38f
2:12pm 24 26 mph 997.8mb 42f 38f
2:06pm 23 28 mph 997.7mb 42f 39f
2:00pm 22 24 mph 997.3mb 42f 38f
1:54pm 20 23 mph 996.8mb 42f 38f
1:48pm 21 24 mph 996.3mb 42f 38f
1:42pm 21 23 mph 996.3mb 42f 38f
1:36pm 21 23 mph 996.1mb 42f 38f
1:30pm 20 23 mph 995.9mb 42f 38f
1:24pm 20 26 mph 995.5mb 42f 38f
1:18pm 21 25 mph 995.4mb 42f 38f
1:12pm 24 28 mph 995.5mb 42f 38f
1:06pm 21 26 mph 995.7mb 42f 38f
1:00pm 20 24 mph 996mb 42f 38f
12:54pm 22 24 mph 996.2mb 42f 37f
12:48pm 21 25 mph 995.8mb 42f 38f
12:42pm 22 25 mph 994.9mb 42f 37f
12:36pm 20 23 mph 995.9mb 42f 38f
12:30pm 21 24 mph 995.7mb 42f 37f
12:24pm 22 24 mph 995.8mb 42f 38f
12:18pm 20 23 mph 996.3mb 42f 38f
12:12pm 21 24 mph 996.2mb 42f 38f
12:06pm 21 22 mph 996.4mb 42f 38f
12:00pm 21 24 mph 996.2mb 42f 38f
11:54am 20 24 mph 996mb 42f 38f
11:48am 23 26 mph 996.3mb 42f 38f
11:42am 20 24 mph 996.4mb 42f 38f
11:36am 18 22 mph 997.4mb 42f 38f
11:30am 20 22 mph 997.3mb 42f 38f
11:24am 17 22 mph 997.9mb 42f 38f
11:18am 21 23 mph 997.6mb 42f 38f
11:12am 20 22 mph 998.1mb 42f 38f
11:06am 20 23 mph 998.1mb 42f 38f
11:00am 22 24 mph 997.3mb 42f 38f
10:54am 21 24 mph 996.7mb 42f 37f
10:48am 20 24 mph 996.3mb 42f 37f
10:42am 23 25 mph 995.8mb 42f 37f
10:36am 21 25 mph 996.2mb 42f 37f
10:30am 20 26 mph 996.4mb 42f 38f
10:24am 22 26 mph 996.5mb 42f 37f
10:18am 23 28 mph 997.2mb 42f 38f
10:12am 23 28 mph 997.8mb 42f 38f
10:06am 23 26 mph 997mb 42f 37f
10:00am 21 23 mph 997.2mb 42f 37f
9:54am 20 22 mph 997.8mb 42f 37f
9:48am 18 22 mph 997.6mb 42f 37f
9:42am 20 22 mph 997.6mb 42f 37f
9:36am 21 23 mph 998.4mb 42f 37f
9:30am 18 22 mph 998.6mb 42f 37f
9:24am 18 21 mph 998.2mb 42f 37f
9:18am 16 21 mph 997.8mb 42f 37f
9:12am 17 20 mph 998.1mb 42f 37f
9:06am 14 15 mph 997.7mb 42f 37f
9:00am 14 16 mph 997.9mb 42f 37f
8:54am 13 15 mph 997.9mb 42f 37f
8:48am 13 14 mph 997.9mb 42f 37f
8:42am 11 18 mph 997.6mb 42f 37f
8:36am 20 22 mph 998.5mb 42f 38f
8:30am 16 17 mph 998.3mb 42f 37f
8:24am 13 14 mph 997.6mb 42f 37f
8:18am 11 14 mph 997.3mb 42f 37f
8:12am 9 11 mph 997.4mb 42f 37f
8:06am 11 15 mph 997.4mb 42f 37f
8:00am 14 15 mph 997.7mb 42f 37f
7:54am 14 17 mph 998mb 42f 37f
7:48am 16 18 mph 998.4mb 42f 38f
7:42am 15 16 mph 999mb 42f 38f
7:36am 16 18 mph 998.9mb 42f 37f
7:30am 17 20 mph 998.9mb 42f 37f
7:24am 20 21 mph 998.6mb 42f 37f
7:18am 15 16 mph 998.6mb 42f 37f
7:12am 14 16 mph 998.7mb 41f 37f
7:06am 14 16 mph 998.6mb 41f 37f
7:00am 13 15 mph 998.6mb 41f 37f
6:54am 14 18 mph 998.5mb 41f 37f
6:48am 16 18 mph 998.8mb 41f 37f
6:42am 17 18 mph 999.1mb 41f 37f
6:36am 16 18 mph 999.1mb 41f 37f
6:30am 18 20 mph 999.4mb 41f 37f
6:24am 18 21 mph 999.5mb 41f 37f
6:18am 20 23 mph 999.5mb 41f 37f
6:12am 20 24 mph 999.6mb 41f 37f
6:06am 20 24 mph 1000mb 41f 37f
6:00am 21 25 mph 1000mb 41f 37f
5:54am 23 26 mph 999.9mb 41f 37f
5:48am 23 25 mph - 42f -
5:42am 24 26 mph - 42f -
5:36am 24 28 mph - 42f -
5:30am 24 26 mph 999.9mb 42f 37f
5:24am 24 28 mph 999.8mb 42f 37f
5:18am 23 26 mph 999.8mb 42f 37f
5:12am 22 28 mph 999.9mb 42f 38f
5:06am 23 26 mph 1000mb 42f 38f
5:00am 23 26 mph 1000mb 42f 38f
4:54am 21 25 mph 999.9mb 42f 38f
4:48am 22 26 mph 1000.1mb 42f 38f
4:42am 22 26 mph 1000.1mb 42f 38f
4:36am 25 28 mph 1000.2mb 42f 38f
4:30am 24 26 mph 1000.2mb 42f 39f
4:24am 23 26 mph 1000.2mb 42f 39f
4:18am 25 28 mph 1000.2mb 42f 39f
4:12am 24 32 mph 1000.3mb 42f 39f
4:06am 29 32 mph 1000.6mb 42f 39f
4:00am 28 31 mph 1000.5mb 42f 40f
3:54am 26 29 mph 1000.4mb 42f 40f
3:48am 24 30 mph 1000.2mb 42f 40f
3:42am 24 28 mph 1000.3mb 42f 40f
3:36am 23 25 mph 1000.4mb 42f 41f
3:30am 20 24 mph 1000.4mb 42f 41f
3:24am 22 25 mph 1000.4mb 42f 42f
3:18am 18 23 mph 1000.3mb 42f 42f
3:12am 17 23 mph 1000.1mb 42f 44f
3:06am 10 14 mph 1000.3mb 42f 48f
3:00am 14 17 mph 1000mb 42f 55f
2:54am 11 16 mph 1000mb 42f 53f
2:48am 14 15 mph 1000.1mb 42f 52f
2:42am 13 16 mph 1000.4mb 42f 52f
2:36am 14 17 mph 1000.7mb 42f 53f
2:30am 15 17 mph 1000.9mb 42f 53f
2:24am 15 17 mph 1001.1mb 42f 53f
2:18am 16 20 mph 1001.3mb 42f 53f
2:12am 17 20 mph 1001.6mb 42f 52f
2:06am 16 18 mph 1001.7mb 42f 52f
2:00am 16 20 mph 1001.9mb 42f 52f
1:54am 18 20 mph 1002.2mb 42f 52f
1:48am 16 18 mph 1002.4mb 42f 52f
1:42am 15 18 mph 1002.6mb 42f 51f
1:36am 16 18 mph 1002.7mb 42f 52f
1:30am 16 20 mph 1002.9mb 42f 52f
1:24am 17 22 mph 1003.1mb 42f 52f
1:18am 17 20 mph 1003.3mb 42f 52f
1:12am 18 22 mph 1003.5mb 42f 52f
1:06am 18 23 mph 1003.8mb 42f 52f
1:00am 18 24 mph 1004.3mb 42f 52f
12:54am 20 24 mph 1004.6mb 42f 52f
12:48am 22 26 mph 1004.8mb 42f 52f
12:42am 22 26 mph 1005mb 42f 52f
12:36am 22 26 mph 1005.3mb 42f 52f
12:30am 21 25 mph 1005.4mb 42f 51f
12:24am 22 26 mph 1005.6mb 42f 51f
12:18am 18 22 mph 1006.1mb 42f 50f
12:12am 16 18 mph 1006.6mb 42f 50f
12:06am 13 17 mph 1006.9mb 42f 49f
12:00am 8 16 mph 1007mb 42f 48f
Fri 01/23 11:54pm 9 18 mph 1007.3mb 42f 48f
11:48pm 13 17 mph 1007.6mb 42f 47f
11:42pm 9 17 mph 1007.7mb 42f 46f
11:36pm 14 20 mph 1008mb 42f 45f
11:30pm 16 22 mph 1008.1mb 42f 45f
11:24pm 17 21 mph 1008.5mb 42f 45f
11:18pm 16 21 mph 1008.9mb 42f 45f
11:12pm 15 22 mph 1009.2mb 42f 44f
11:06pm 18 22 mph 1009.4mb 42f 44f
11:00pm 15 21 mph 1009.8mb 42f 44f
10:54pm 18 22 mph 1010.2mb 42f 44f
10:48pm 17 21 mph 1010.5mb 42f 44f
10:42pm 16 20 mph 1010.8mb 42f 43f
10:36pm 17 21 mph 1011.2mb 42f 43f
10:30pm 18 22 mph 1011.5mb 42f 43f
10:24pm 20 22 mph 1011.7mb 42f 43f
10:18pm 18 22 mph 1012mb 42f 43f
10:12pm  -  mph 1012.3mb 42f 43f
10:06pm  -  mph 1012.7mb 42f 43f
10:00pm 17 22 mph 1012.8mb - 42f
9:54pm 18 21 mph 1012.9mb - 42f
9:48pm 20 23 mph 1013.2mb 42f 42f
9:42pm 21 23 mph 1013.2mb 42f 42f
9:36pm 21 25 mph 1013.2mb 42f 42f
9:30pm 22 25 mph 1013.6mb 42f 42f
9:24pm 20 22 mph 1014mb 41f 41f
9:18pm 21 23 mph 1014.3mb 42f 41f
9:12pm 20 23 mph 1014.6mb 42f 41f
9:06pm 20 22 mph 1014.8mb 42f 41f
9:00pm 22 24 mph 1015mb 41f 41f
8:54pm 20 23 mph 1015mb 41f 41f
8:48pm 22 24 mph 1015mb 41f -
8:42pm 20 24 mph 1015.2mb 41f -
8:36pm 22 24 mph 1015.4mb 41f -
8:30pm 21 23 mph 1015.7mb 41f 40f
8:24pm 20 22 mph 1016.1mb 41f 40f
8:18pm 20 22 mph 1016.3mb 41f 40f
8:12pm 17 21 mph 1016.6mb 41f 40f
8:06pm 20 21 mph 1016.8mb 41f 40f
8:00pm 17 21 mph 1017.1mb 41f 40f
7:54pm 17 20 mph 1017.4mb 41f 40f
7:48pm 17 20 mph 1017.5mb 41f 40f
7:42pm 18 21 mph 1017.6mb 41f 40f
7:36pm 17 21 mph 1017.7mb 41f 40f
7:30pm 16 20 mph 1018mb 41f 40f
7:24pm 17 20 mph 1018.1mb 41f 40f
7:18pm 16 17 mph 1018.3mb 41f 40f
7:12pm 16 18 mph 1018.4mb 41f 40f
7:06pm 15 18 mph 1018.6mb 41f 40f
7:00pm 15 18 mph 1018.8mb 41f 40f
6:54pm 16 17 mph 1018.9mb 41f 40f
6:48pm 15 17 mph 1019mb 41f 40f
6:42pm 15 16 mph 1019.3mb 41f 40f
6:36pm 14 16 mph 1019.3mb 41f 40f
6:30pm 13 15 mph 1019.5mb 41f 40f
6:24pm 13 14 mph 1019.6mb 42f 40f
6:18pm 11 13 mph 1019.7mb 42f 40f
6:12pm 11 13 mph 1019.9mb 42f 40f
6:06pm 11 14 mph 1019.8mb 42f 40f
6:00pm 11 14 mph 1019.8mb 42f 40f
5:54pm 13 14 mph 1019.8mb 42f 40f
5:48pm 13 14 mph 1019.9mb 42f 40f
5:42pm 13 14 mph 1019.9mb 42f 40f
5:36pm 10 13 mph 1020mb 41f 40f
5:30pm 11 13 mph 1020.1mb 41f 40f
5:24pm 10 11 mph 1020.1mb 41f 40f
5:18pm 10 11 mph 1020.1mb 41f 40f
5:12pm 9 10 mph 1020.2mb 41f 40f
5:06pm 8 10 mph 1020.5mb 41f 40f
5:00pm 9 10 mph 1020.5mb 41f 40f
4:54pm 10 11 mph 1020.5mb 41f 40f
4:48pm 9 10 mph 1020.6mb 41f 40f
4:42pm 9 10 mph 1020.8mb 41f 40f
4:36pm 8 9 mph 1021mb 41f 40f
4:30pm 9
mph
1021.3mb 41f 40f
4:24pm 8 9 mph 1021.5mb 41f 40f
4:18pm 8 10 mph 1021.5mb 41f 40f
4:12pm 9 10 mph 1021.6mb 42f 40f
4:06pm 10 11 mph 1021.5mb 42f 40f
4:00pm 9 10 mph 1021.8mb 41f 40f
3:54pm 9 10 mph 1021.9mb 41f 40f
3:48pm 9 10 mph 1022.1mb 41f 40f
3:42pm 8 10 mph 1022.2mb 41f 40f
3:36pm 7 8 mph 1022.4mb 41f 40f
3:30pm 7 8 mph 1022.6mb 41f 40f
3:24pm 7 8 mph 1022.7mb 41f 40f
3:18pm 6 7 mph 1022.9mb 41f 40f
3:12pm 6 7 mph 1023mb 41f 40f
3:06pm 6 7 mph 1023.1mb 41f 40f
3:00pm 6 8 mph 1023mb 41f 40f
2:54pm 6 7 mph 1022.9mb 41f 40f
2:48pm 6 7 mph 1023.1mb 41f 40f
2:42pm 6 7 mph 1023.1mb 41f 40f
2:36pm 6 7 mph 1023.1mb 41f 40f
2:30pm 6 7 mph 1023.2mb 41f 40f
2:24pm 7 8 mph 1023.3mb 41f 40f
2:18pm 7 8 mph 1023.4mb 41f 40f
2:12pm 7
mph
1023.6mb 41f 40f
2:06pm 6 8 mph 1023.5mb 41f 40f
2:00pm 7 8 mph 1023.4mb 41f 40f
1:54pm 6 8 mph 1023.6mb 41f 40f
1:48pm 7 10 mph 1023.6mb 41f 40f
1:42pm 10 11 mph 1023.2mb 41f 40f
1:36pm 9 11 mph 1023.5mb 41f 40f
1:30pm 9 11 mph 1023.5mb 41f 40f
1:24pm 10 11 mph 1023.5mb 41f 40f
1:18pm 9 10 mph 1023.9mb 41f 40f
1:12pm 8 9 mph 1024.2mb 41f 40f
1:06pm 7 9 mph 1024.3mb 41f 40f
1:00pm 7 8 mph 1024.4mb 41f 40f
12:54pm 7 8 mph 1024.7mb 41f 40f
12:48pm 6 7 mph 1024.9mb 41f 40f
12:42pm 7 8 mph 1025.1mb 41f 40f
12:36pm 7 8 mph 1025.2mb 41f 40f
12:30pm 7 8 mph 1025.3mb 41f 40f
12:24pm 7
mph
1025.4mb 41f 40f
12:18pm 8
mph
1025.6mb 41f 40f
12:12pm 7
mph
1025.7mb 41f 40f
12:06pm 6 7 mph 1025.8mb 41f 40f
12:00pm 7
mph
1025.9mb 41f 40f
11:54am 7
mph
1025.9mb 41f 40f
11:48am 6 7 mph 1026.1mb 41f 40f
11:42am 6 8 mph 1026.1mb 41f 40f
11:36am 6 8 mph 1026.1mb 41f 40f
11:30am 7 8 mph 1026.3mb 41f 40f
11:24am 8 9 mph 1026.4mb 41f 40f
11:18am 7 8 mph 1026.4mb 41f 40f
11:12am 7 8 mph 1026.6mb 41f 40f
11:06am 8 9 mph 1026.8mb 41f 40f
11:00am 9 10 mph - - 40f
10:54am 9 10 mph - - 40f
10:48am 9 10 mph 1026.9mb 41f 40f
10:42am 9 10 mph 1026.9mb 41f 40f
10:36am 8 9 mph 1027mb 41f 40f
10:30am 10 11 mph 1027mb 41f 40f
10:24am 9 11 mph 1026.9mb 41f 40f
10:18am 10 11 mph 1026.9mb 41f 40f
10:12am 10 11 mph 1027mb 41f 40f
10:06am 10 11 mph 1027.2mb 41f 39f
10:00am 10 13 mph 1027.2mb 41f 39f
9:54am 10 11 mph 1027.2mb 41f 39f
9:48am  -  mph - - 39f
9:42am  -  mph - - 39f
9:36am  -  mph - - 39f
9:30am 11 14 mph 1026.9mb 41f 39f
9:24am 13 14 mph 1026.9mb 41f 39f
9:18am 13 14 mph 1027mb 41f 39f
9:12am 11 14 mph 1027mb 41f 39f
9:06am 11 13 mph 1027.2mb 41f 39f
9:00am 11 13 mph 1027.2mb 41f 39f
8:54am 9 11 mph 1027.2mb 41f 39f
8:48am 10 11 mph 1027.3mb 41f 39f
8:42am 11 14 mph 1027.1mb 41f 39f
8:36am 10 11 mph 1027.1mb 41f 39f
8:30am 10 11 mph 1027.2mb 41f 39f
8:24am 9 11 mph 1027.2mb 41f 39f
8:18am 10 11 mph 1027.3mb 41f 39f
8:12am 9 11 mph 1027.4mb 41f 39f
8:06am 8 10 mph 1027.5mb 41f 39f
8:00am 9 10 mph 1027.5mb 41f 38f
7:54am 10 11 mph 1027.5mb 41f 38f
7:48am 10 11 mph 1027.5mb 41f 38f
7:42am 10 11 mph 1027.5mb 41f 38f
7:36am 10 13 mph 1027.5mb 41f 38f
7:30am 10 13 mph 1027.4mb 41f 38f
7:24am 13
mph
1027.5mb 41f 38f
7:18am 10 13 mph 1027.6mb 41f 38f
7:12am 11 13 mph 1027.7mb 41f 38f
7:06am 10 11 mph 1027.8mb 41f 38f
7:00am 9 13 mph 1027.8mb 41f 38f
6:54am 9 11 mph 1028mb 41f 38f
6:48am 10 11 mph 1027.9mb 41f 38f
6:42am 10 11 mph 1028mb 41f 38f
6:36am 11
mph
1028.1mb 41f 39f
6:30am 10 11 mph 1028.2mb 41f 39f
6:24am 10 13 mph 1028.3mb 41f 39f
6:18am 11 13 mph 1028.3mb 41f 39f
6:12am 10 13 mph 1028.3mb 41f 39f
6:06am 10 11 mph 1028.3mb 41f 39f
6:00am 10 11 mph 1028.2mb 41f 39f
5:54am 9 11 mph 1028.3mb 41f 39f
5:48am 8 10 mph 1028.6mb - -
5:42am 8 10 mph 1028.6mb 41f 39f
5:36am 9 11 mph 1028.4mb 41f 39f
5:30am 9 11 mph 1028.3mb 41f 39f
5:24am 9 11 mph 1028.1mb 41f 39f
5:18am 10 13 mph 1027.9mb - 39f
5:12am 11 14 mph 1027.8mb - 39f
5:06am 11 13 mph 1027.7mb - 39f
5:00am 11 14 mph 1027.6mb 41f 39f
4:54am 11 14 mph 1027.7mb 41f 39f
4:48am 13 15 mph 1027.6mb 41f 39f
4:42am 14 16 mph 1027.5mb 41f 39f
4:36am 14 17 mph 1027.4mb 41f 39f
4:30am 14 16 mph 1027.5mb 41f 40f
4:24am 14 17 mph 1027.6mb 41f 40f
4:18am 14 16 mph 1027.7mb 41f 40f
4:12am 14
mph
1027.8mb 41f 40f
4:06am 11 13 mph 1027.9mb 41f 40f
4:00am 11 13 mph 1027.9mb 41f 40f
3:54am 10 13 mph 1028mb 41f 40f
3:48am 11 13 mph 1028.1mb 41f 40f
3:42am 11
mph
1028.2mb 41f 39f
3:36am 10 11 mph 1028.4mb 41f 40f
3:30am 10 11 mph 1028.4mb 41f 40f
3:24am 9 10 mph 1028.4mb 41f 40f
3:18am 9 10 mph 1028.3mb 41f 40f
3:12am 10 11 mph 1028.3mb 41f 40f
3:06am 9 10 mph 1028.4mb 41f 40f
3:00am 8 10 mph 1028.4mb 41f 40f
2:54am 8 9 mph 1028.4mb 41f 40f
2:48am 8 9 mph 1028.4mb 41f 40f
2:42am 8 10 mph 1028.5mb 41f 40f
2:36am 7 10 mph 1028.6mb 41f 40f
2:30am 8 9 mph 1028.7mb 41f 40f
2:24am 8 9 mph 1028.7mb 41f 40f
2:18am 7 8 mph 1028.5mb 41f 40f
2:12am 6 7 mph 1028.5mb 41f 40f
2:06am 5 6 mph 1028.4mb 41f 40f
2:00am 6
mph
1028.3mb 41f 40f
1:54am 6 7 mph 1028.2mb 41f 40f
1:48am 6 7 mph 1028.2mb 41f 40f
1:42am 7
mph
1028.1mb 41f 40f
1:36am 7
mph
1028mb 41f 40f
1:30am 6
mph
1028mb 41f 40f
1:24am 5 6 mph 1028.1mb 41f 40f
1:18am 6
mph
1028.1mb 41f 39f
1:12am 6
mph
1028.1mb 41f 40f
1:06am 6
mph
1028.2mb 41f 40f
1:00am 5 6 mph 1028.2mb 41f 39f
12:54am 5
mph
1028.2mb 41f 39f
12:48am 5
mph
1028.2mb 41f 39f
12:42am 3
mph
1028.2mb 41f 39f
12:36am 3
mph
1028.2mb 41f 39f
12:30am 3
mph
1028mb 41f 39f
12:24am 3
mph
1027.8mb 41f 39f
12:18am 2
mph
1027.7mb 41f 39f
12:12am 2
mph
1027.7mb 41f 39f
12:06am 2 3 mph 1027.7mb 41f 39f
12:00am 3
mph
1027.8mb 41f 39f
Thu 01/22 11:54pm 2 3 mph 1027.7mb 41f 39f
11:48pm 2
mph
1027.7mb 41f 39f
11:42pm 2 3 mph 1027.8mb 41f 40f
11:36pm 2
mph
1028mb 41f 40f
11:30pm 2
mph
1027.9mb 41f 40f
11:24pm 2
mph
1027.9mb 41f 40f
11:18pm 2 3 mph 1027.9mb 41f 40f
11:12pm 3
mph
1027.9mb 41f 40f
11:06pm 3 5 mph 1027.8mb 41f 40f
11:00pm 3
mph
1027.9mb 41f 40f
10:54pm 3 5 mph 1027.9mb 41f 40f
10:48pm 2 3 mph 1027.9mb 41f 40f
10:42pm 3
mph
1027.9mb 41f 40f
10:36pm 3 5 mph 1027.9mb 41f 40f
10:30pm 3 5 mph 1027.8mb - 40f
10:24pm 5
mph
1027.9mb - 40f
10:18pm 3 6 mph - - -
10:12pm 3 5 mph 1028mb 41f 40f
10:06pm 3 5 mph 1028.2mb 41f 40f
10:00pm 3 5 mph 1028.1mb 41f 40f
9:54pm 2 3 mph 1028.1mb 41f 40f
9:48pm 1 2 mph 1028mb 41f 40f
9:42pm  -  1 mph 1028mb 41f 40f
9:36pm  -  1 mph 1028.1mb 41f 40f
9:30pm  -  1 mph 1028.4mb 41f 40f
9:24pm  -  1 mph 1028.2mb 41f 40f
9:18pm 1 2 mph 1028.2mb 41f 40f
9:12pm 2
mph
1028.1mb 41f 40f
9:06pm 3 5 mph 1028mb 41f 40f
9:00pm 3 5 mph 1027.9mb 41f 40f
8:54pm 3 6 mph 1027.8mb 41f 40f
8:48pm 5 6 mph 1027.9mb 41f 40f
8:42pm 5 6 mph 1027.9mb 41f 40f
8:36pm 6 7 mph 1027.9mb 41f 39f
8:30pm 6
mph
1027.8mb 41f 40f
8:24pm 6
mph
1027.8mb 41f 40f
8:18pm 6 7 mph 1027.7mb 41f -
8:12pm 7 8 mph 1027.7mb 41f 40f
8:06pm 7 8 mph 1027.5mb 41f 40f
8:00pm 6 7 mph 1027.5mb 41f 40f
7:54pm 7 8 mph 1027.6mb 41f 40f
7:48pm 7
mph
1027.6mb 41f 40f
7:42pm 6 8 mph 1027.6mb 41f 40f
7:36pm 7 9 mph 1027.6mb 41f 40f
7:30pm 5 6 mph 1027.7mb 41f 39f
7:24pm 5
mph
1027.9mb 41f 39f
7:18pm 5
mph
1027.8mb 41f 39f
7:12pm 5
mph
1027.9mb 41f 39f
7:06pm 3
mph
1027.9mb 41f 39f
7:00pm 3
mph
1028mb 41f 39f
6:54pm 3 5 mph 1028mb 41f 39f
6:48pm 5
mph
1028mb 41f 39f
6:42pm 3
mph
1027.8mb 41f 39f
6:36pm 3 5 mph 1027.8mb 41f 39f
6:30pm 3
mph
1027.8mb 41f 39f
6:24pm 2
mph
1027.8mb 41f 39f
6:18pm 1 3 mph 1027.8mb 41f 39f
6:12pm  -  mph 1027.7mb 41f 38f
6:06pm  -  mph 1027.6mb 41f 38f
6:00pm  -  mph 1027.5mb 41f 38f
5:54pm  -  1 mph 1027.4mb 41f 38f
5:48pm  -  1 mph 1027.5mb 41f 38f
5:42pm 1 2 mph 1027.3mb 41f 38f
5:36pm 2
mph
1027.1mb 41f 38f
5:30pm  -  mph - 41f 38f
5:24pm  -  mph - 41f 38f
5:18pm  -  mph 1026.9mb 41f 38f
5:12pm  -  mph 1026.9mb 41f 39f
5:06pm  -  mph 1026.7mb 41f 39f
5:00pm  -  mph 1026.7mb 42f 39f
4:54pm  -  1 mph 1026.6mb 42f 38f
4:48pm  -  1 mph 1026.6mb 42f 40f
4:42pm  -  2 mph 1026.6mb 42f 39f
4:36pm  -  1 mph 1026.5mb 42f 39f
4:30pm  -  mph 1026.5mb 42f 39f
4:24pm  -  mph 1026.4mb 42f 38f
4:18pm 2
mph
1026.3mb 42f 38f
4:12pm 1 2 mph 1026.2mb 41f 38f
4:06pm 1 2 mph 1026.2mb 41f 38f
4:00pm 2 3 mph 1026.1mb 41f 37f
3:54pm 2 3 mph 1026.1mb 41f 37f
3:48pm 3 5 mph 1026.3mb 41f 37f
3:42pm 5
mph
1026.1mb 41f 37f
3:36pm 3 5 mph 1026.1mb 41f 37f
3:30pm 3 5 mph 1026mb 42f 37f
3:24pm 5
mph
1026.1mb 42f 36f